Time;durP1;ratioP1;P1;durP2;ratioP2;P2;SDS_P1;SDS_P2;PMS_P1;PMS_P2;Temp;Humidity;BMP_temperature;BMP_pressure;BME280_temperature;BME280_humidity;BME280_pressure;Samples;Min_cycle;Max_cycle;Signal;HPM_P1;HPM_P2
2023/04/28 00:01:48;;;;;;;15.18;8.15;;;10.10;99.90;;;;;;5061468;28;20032;-90
2023/04/28 00:04:14;;;;;;;16.05;7.45;;;10.10;99.90;;;;;;5047653;28;20013;-89
2023/04/28 00:06:39;;;;;;;13.77;7.32;;;10.10;99.90;;;;;;5055795;28;20039;-89
2023/04/28 00:09:09;;;;;;;13.02;7.68;;;10.10;99.90;;;;;;5056634;28;20064;-90
2023/04/28 00:11:36;;;;;;;14.00;8.07;;;10.20;99.90;;;;;;5064808;28;20036;-90
2023/04/28 00:14:02;;;;;;;17.60;8.95;;;10.20;99.90;;;;;;5072233;28;20063;-89
2023/04/28 00:16:28;;;;;;;13.82;8.38;;;10.30;99.90;;;;;;5071812;28;20021;-89
2023/04/28 00:18:54;;;;;;;19.05;7.95;;;10.40;99.90;;;;;;5056281;28;20526;-89
2023/04/28 00:21:19;;;;;;;14.82;7.60;;;10.40;99.90;;;;;;5054296;28;20052;-90
2023/04/28 00:23:45;;;;;;;13.35;8.20;;;10.40;99.90;;;;;;5059068;28;20048;-89
2023/04/28 00:26:11;;;;;;;15.05;8.07;;;10.30;99.90;;;;;;5056255;28;20020;-89
2023/04/28 00:28:38;;;;;;;13.77;8.05;;;10.20;99.90;;;;;;5061801;28;20352;-89
2023/04/28 00:31:11;;;;;;;22.20;8.73;;;10.10;99.90;;;;;;5055863;28;20051;-90
2023/04/28 00:33:37;;;;;;;14.98;8.80;;;10.10;99.90;;;;;;5073191;28;20681;-89
2023/04/28 00:36:04;;;;;;;19.45;9.70;;;10.10;99.90;;;;;;5056104;28;20387;-90
2023/04/28 00:38:30;;;;;;;16.10;9.07;;;10.00;99.90;;;;;;5056185;28;20595;-90
2023/04/28 00:40:56;;;;;;;22.38;9.05;;;9.90;99.90;;;;;;5050684;28;20064;-90
2023/04/28 00:43:21;;;;;;;22.13;10.07;;;9.70;99.90;;;;;;5062942;28;20500;-90
2023/04/28 00:45:51;;;;;;;23.38;10.20;;;9.60;99.90;;;;;;5049137;28;20024;-89
2023/04/28 00:48:17;;;;;;;18.15;9.98;;;9.60;99.90;;;;;;5052686;28;20040;-89
2023/04/28 00:50:44;;;;;;;28.30;11.13;;;9.40;99.90;;;;;;5044529;28;20017;-87
2023/04/28 00:53:11;;;;;;;27.27;10.38;;;9.20;99.90;;;;;;5064013;28;20025;-89
2023/04/28 00:55:37;;;;;;;18.77;10.32;;;9.00;99.90;;;;;;5065164;28;20060;-89
2023/04/28 00:58:04;;;;;;;18.02;10.27;;;8.90;99.90;;;;;;5065336;28;20040;-90
2023/04/28 01:00:30;;;;;;;18.40;10.90;;;8.90;99.90;;;;;;5055112;28;20032;-89
2023/04/28 01:02:56;;;;;;;20.75;9.98;;;8.70;99.90;;;;;;5059794;28;20035;-89
2023/04/28 01:05:24;;;;;;;17.55;9.55;;;8.80;99.90;;;;;;5069531;28;20052;-89
2023/04/28 01:07:51;;;;;;;18.92;10.15;;;8.70;99.90;;;;;;5067947;28;20518;-89
2023/04/28 01:10:17;;;;;;;16.33;10.45;;;8.70;99.90;;;;;;5062526;28;20033;-89
2023/04/28 01:12:42;;;;;;;17.75;9.27;;;8.70;99.90;;;;;;5065187;28;20024;-89
2023/04/28 01:15:19;;;;;;;19.33;10.35;;;8.70;99.90;;;;;;5056763;28;20032;-88
2023/04/28 01:17:47;;;;;;;15.10;9.55;;;8.80;99.90;;;;;;5053620;28;20372;-88
2023/04/28 01:20:13;;;;;;;16.00;9.18;;;8.90;99.90;;;;;;5054836;28;20028;-89
2023/04/28 01:22:40;;;;;;;16.75;8.75;;;9.10;99.90;;;;;;5051920;28;20024;-89
2023/04/28 01:25:06;;;;;;;14.10;8.85;;;9.10;99.90;;;;;;5054900;28;20025;-89
2023/04/28 01:27:32;;;;;;;17.55;9.07;;;9.20;99.90;;;;;;5058428;28;20138;-89
2023/04/28 01:29:59;;;;;;;13.90;8.68;;;9.20;99.90;;;;;;5075880;28;20754;-88
2023/04/28 01:32:25;;;;;;;13.88;8.95;;;9.10;99.90;;;;;;5057014;28;20116;-89
2023/04/28 01:34:51;;;;;;;14.93;9.18;;;9.10;99.90;;;;;;5059313;28;20036;-88
2023/04/28 01:37:16;;;;;;;20.02;9.00;;;9.00;99.90;;;;;;5056567;28;20035;-88
2023/04/28 01:39:42;;;;;;;15.88;9.48;;;8.90;99.90;;;;;;5059150;28;20036;-88
2023/04/28 01:42:08;;;;;;;19.30;9.48;;;8.80;99.90;;;;;;5062716;28;20052;-89
2023/04/28 01:44:33;;;;;;;13.95;9.05;;;8.70;99.90;;;;;;5072769;28;20459;-88
2023/04/28 01:46:59;;;;;;;19.20;9.48;;;8.60;99.90;;;;;;5052155;28;20028;-88
2023/04/28 01:49:25;;;;;;;19.48;10.02;;;8.70;99.90;;;;;;5056841;28;20097;-88
2023/04/28 01:51:51;;;;;;;15.82;8.13;;;8.80;99.90;;;;;;5043116;28;20041;-88
2023/04/28 01:54:17;;;;;;;17.75;9.23;;;8.90;99.90;;;;;;5054641;28;20392;-89
2023/04/28 01:56:43;;;;;;;12.48;8.45;;;8.90;99.90;;;;;;5056244;28;20035;-88
2023/04/28 01:59:10;;;;;;;18.80;8.65;;;8.90;99.90;;;;;;5050526;28;20406;-88
2023/04/28 02:01:36;;;;;;;16.85;8.65;;;8.90;99.90;;;;;;5071523;28;20096;-89
2023/04/28 02:04:02;;;;;;;14.10;9.02;;;8.80;99.90;;;;;;5048455;28;20763;-89
2023/04/28 02:06:30;;;;;;;15.25;8.43;;;9.00;99.90;;;;;;5056540;28;20025;-89
2023/04/28 02:08:56;;;;;;;18.20;9.88;;;9.00;99.90;;;;;;5074556;28;20021;-88
2023/04/28 02:11:21;;;;;;;15.00;9.38;;;9.00;99.90;;;;;;5074166;28;20545;-88
2023/04/28 02:13:47;;;;;;;13.05;7.95;;;8.90;99.90;;;;;;5050090;28;20067;-89
2023/04/28 02:16:13;;;;;;;13.48;9.07;;;9.00;99.90;;;;;;5051647;28;20082;-89
2023/04/28 02:18:38;;;;;;;14.10;9.32;;;9.10;99.90;;;;;;5058439;28;20369;-89
2023/04/28 02:21:11;;;;;;;14.77;8.95;;;9.10;99.90;;;;;;5058221;28;20052;-89
2023/04/28 02:23:38;;;;;;;12.98;8.93;;;9.10;99.90;;;;;;5047010;28;20032;-89
2023/04/28 02:26:04;;;;;;;15.15;8.75;;;9.00;99.90;;;;;;5045839;28;20020;-88
2023/04/28 02:28:30;;;;;;;14.40;8.98;;;8.90;99.90;;;;;;5039122;28;20033;-89
2023/04/28 02:31:10;;;;;;;16.58;9.80;;;8.80;99.90;;;;;;5049970;28;20480;-89
2023/04/28 02:33:36;;;;;;;16.75;10.05;;;8.70;99.90;;;;;;5057565;28;20043;-89
2023/04/28 02:36:04;;;;;;;13.73;8.93;;;8.60;99.90;;;;;;5043675;28;20025;-88
2023/04/28 02:38:30;;;;;;;20.88;10.85;;;8.70;99.90;;;;;;5053980;28;20496;-89
2023/04/28 02:41:07;;;;;;;20.17;9.45;;;8.60;99.90;;;;;;5050922;28;20051;-89
2023/04/28 02:43:35;;;;;;;18.20;9.30;;;8.60;99.90;;;;;;5055447;28;20071;-89
2023/04/28 02:46:02;;;;;;;18.02;8.73;;;8.50;99.90;;;;;;5039372;28;20025;-89
2023/04/28 02:48:28;;;;;;;14.57;8.68;;;8.50;99.90;;;;;;5052932;28;20036;-89
2023/04/28 02:50:53;;;;;;;15.07;8.77;;;8.50;99.90;;;;;;5041115;28;20392;-89
2023/04/28 02:53:21;;;;;;;15.15;7.88;;;8.60;99.90;;;;;;5052475;28;20028;-89
2023/04/28 02:55:47;;;;;;;12.80;8.40;;;8.70;99.90;;;;;;5046300;28;20021;-89
2023/04/28 02:58:13;;;;;;;15.73;9.00;;;8.80;99.90;;;;;;5057712;28;20622;-89
2023/04/28 03:00:39;;;;;;;16.45;8.98;;;8.90;99.90;;;;;;5054571;28;20119;-89
2023/04/28 03:03:04;;;;;;;18.63;8.60;;;8.90;99.90;;;;;;5049342;28;20048;-89
2023/04/28 03:05:30;;;;;;;17.88;9.48;;;9.00;99.90;;;;;;5044418;28;20394;-89
2023/04/28 03:07:56;;;;;;;14.15;8.00;;;9.00;99.90;;;;;;5050567;28;20032;-89
2023/04/28 03:10:22;;;;;;;14.48;8.02;;;9.10;99.90;;;;;;5061718;28;20082;-89
2023/04/28 03:12:47;;;;;;;12.98;7.88;;;9.20;99.90;;;;;;5062803;28;20060;-89
2023/04/28 03:15:13;;;;;;;12.93;7.45;;;9.30;99.90;;;;;;5058009;28;20056;-89
2023/04/28 03:17:40;;;;;;;10.63;7.10;;;9.40;99.90;;;;;;5069471;28;20024;-89
2023/04/28 03:20:08;;;;;;;15.38;6.85;;;9.50;99.90;;;;;;5053800;28;20033;-89
2023/04/28 03:22:34;;;;;;;16.33;7.65;;;9.50;99.90;;;;;;5059022;28;20017;-89
2023/04/28 03:25:00;;;;;;;10.45;6.95;;;9.60;99.90;;;;;;5047447;28;20021;-88
2023/04/28 03:27:28;;;;;;;12.65;7.28;;;9.60;99.90;;;;;;5055197;28;20025;-89
2023/04/28 03:29:55;;;;;;;14.90;7.00;;;9.60;99.90;;;;;;5047098;28;20025;-89
2023/04/28 03:32:21;;;;;;;11.20;7.03;;;9.50;99.90;;;;;;5053832;28;20362;-89
2023/04/28 03:34:50;;;;;;;14.10;7.65;;;9.50;99.90;;;;;;5045320;28;20021;-88
2023/04/28 03:37:16;;;;;;;15.25;7.40;;;9.50;99.90;;;;;;5085110;28;20059;-88
2023/04/28 03:39:41;;;;;;;19.00;8.02;;;9.40;99.90;;;;;;5082220;28;20029;-88
2023/04/28 03:42:07;;;;;;;15.43;8.63;;;9.30;99.90;;;;;;5068814;28;20021;-89
2023/04/28 03:44:52;;;;;;;12.80;8.75;;;9.20;99.90;;;;;;5072129;28;20043;-88
2023/04/28 03:47:18;;;;;;;16.33;9.30;;;9.00;99.90;;;;;;5053325;28;20812;-88
2023/04/28 03:49:44;;;;;;;18.45;9.48;;;8.90;99.90;;;;;;5054942;28;20033;-88
2023/04/28 03:52:10;;;;;;;18.52;10.73;;;8.70;99.90;;;;;;5056233;28;20053;-87
2023/04/28 03:54:35;;;;;;;18.77;11.00;;;8.70;99.90;;;;;;5046731;28;20063;-87
2023/04/28 03:57:03;;;;;;;15.77;9.82;;;8.60;99.90;;;;;;5053084;28;20020;-88
2023/04/28 03:59:31;;;;;;;18.50;10.73;;;8.60;99.90;;;;;;5039757;28;20069;-88
2023/04/28 04:01:57;;;;;;;19.50;12.10;;;8.60;99.90;;;;;;5052725;28;20480;-89
2023/04/28 04:04:23;;;;;;;19.48;10.25;;;8.50;99.90;;;;;;5049630;28;20032;-89
2023/04/28 04:06:49;;;;;;;17.50;11.23;;;8.60;99.90;;;;;;5050411;28;20531;-87
2023/04/28 04:09:15;;;;;;;18.55;11.77;;;8.60;99.90;;;;;;5046290;28;20047;-88
2023/04/28 04:11:40;;;;;;;17.48;10.55;;;8.60;99.90;;;;;;5046908;28;20043;-90
2023/04/28 04:14:06;;;;;;;16.60;10.35;;;8.70;99.90;;;;;;5044359;28;20036;-90
2023/04/28 04:16:32;;;;;;;19.70;10.73;;;8.70;99.90;;;;;;5055192;28;20518;-90
2023/04/28 04:18:58;;;;;;;26.85;13.90;;;8.80;99.90;;;;;;5050019;28;20115;-90
2023/04/28 04:21:36;;;;;;;18.98;11.70;;;8.90;99.90;;;;;;5040121;28;20112;-90
2023/04/28 04:24:01;;;;;;;21.23;12.88;;;9.00;99.90;;;;;;5050450;28;20432;-89
2023/04/28 04:26:27;;;;;;;14.55;9.55;;;9.00;99.90;;;;;;5071032;28;20102;-90
2023/04/28 04:28:53;;;;;;;16.40;10.18;;;9.20;99.90;;;;;;5056127;28;20082;-91
2023/04/28 04:31:19;;;;;;;14.02;8.63;;;9.20;99.90;;;;;;5053096;28;20035;-90
2023/04/28 04:33:45;;;;;;;13.90;8.93;;;9.20;99.90;;;;;;5057323;28;20064;-90
2023/04/28 04:36:11;;;;;;;14.27;9.52;;;9.30;99.90;;;;;;5052947;28;20025;-91
2023/04/28 04:38:38;;;;;;;14.45;8.88;;;9.30;99.90;;;;;;5054182;28;20028;-90
2023/04/28 04:41:15;;;;;;;14.95;8.93;;;9.30;99.90;;;;;;5060174;28;20495;-91
2023/04/28 04:43:42;;;;;;;11.63;8.60;;;9.30;99.90;;;;;;5051336;28;20859;-90
2023/04/28 04:46:08;;;;;;;12.73;8.10;;;9.30;99.90;;;;;;5068008;28;20028;-90
2023/04/28 04:48:34;;;;;;;12.75;8.13;;;9.40;99.90;;;;;;5054871;28;20067;-90
2023/04/28 04:50:59;;;;;;;12.70;8.05;;;9.40;99.90;;;;;;5054402;28;20024;-90
2023/04/28 04:53:26;;;;;;;12.90;8.38;;;9.40;99.90;;;;;;5057181;28;20112;-91
2023/04/28 04:55:54;;;;;;;16.10;8.48;;;9.30;99.90;;;;;;5060264;28;20029;-91
2023/04/28 04:58:20;;;;;;;18.35;8.60;;;9.40;99.90;;;;;;5049113;28;20808;-91
2023/04/28 05:01:12;;;;;;;15.27;9.20;;;9.40;99.90;;;;;;5064012;28;20021;-91
2023/04/28 05:03:38;;;;;;;13.05;8.07;;;9.40;99.90;;;;;;5060248;28;20024;-90
2023/04/28 05:06:03;;;;;;;13.20;8.05;;;9.50;99.90;;;;;;5061272;28;20020;-91
2023/04/28 05:08:38;;;;;;;20.15;8.93;;;9.50;99.90;;;;;;5051849;28;20490;-90
2023/04/28 05:11:04;;;;;;;14.10;8.43;;;9.50;99.90;;;;;;5061545;28;20024;-90
2023/04/28 05:13:30;;;;;;;14.50;9.05;;;9.50;99.90;;;;;;5065793;28;20078;-90
2023/04/28 05:16:00;;;;;;;15.10;8.15;;;9.50;99.90;;;;;;5057394;28;20032;-90
2023/04/28 05:18:34;;;;;;;13.40;8.15;;;9.50;99.90;;;;;;5049538;28;20029;-90
2023/04/28 05:21:00;;;;;;;14.27;8.07;;;9.60;99.90;;;;;;5059046;28;20047;-90
2023/04/28 05:23:26;;;;;;;18.20;8.25;;;9.70;99.90;;;;;;5059802;28;20111;-90
2023/04/28 05:25:52;;;;;;;12.02;8.27;;;9.70;99.90;;;;;;5052560;28;20079;-91
2023/04/28 05:28:19;;;;;;;16.75;8.52;;;9.60;99.90;;;;;;5041778;28;20032;-90
2023/04/28 05:30:45;;;;;;;13.90;8.98;;;9.60;99.90;;;;;;5067096;28;20095;-91
2023/04/28 05:33:12;;;;;;;11.05;7.95;;;9.60;99.90;;;;;;5059091;28;20029;-90
2023/04/28 05:35:39;;;;;;;14.90;8.93;;;9.50;99.90;;;;;;5057764;28;20043;-91
2023/04/28 05:38:05;;;;;;;14.77;8.77;;;9.50;99.90;;;;;;5047636;28;20040;-90
2023/04/28 05:40:31;;;;;;;18.60;9.63;;;9.40;99.90;;;;;;5056465;28;20032;-91
2023/04/28 05:42:57;;;;;;;15.15;9.43;;;9.30;99.90;;;;;;5061742;28;20025;-90
2023/04/28 05:45:23;;;;;;;20.70;10.85;;;9.30;99.90;;;;;;5044542;28;20028;-91
2023/04/28 05:47:49;;;;;;;20.40;11.60;;;9.20;99.90;;;;;;5063448;28;20057;-88
2023/04/28 05:50:15;;;;;;;21.38;10.40;;;9.10;99.90;;;;;;5049722;28;20036;-89
2023/04/28 05:52:42;;;;;;;22.00;11.00;;;9.10;99.90;;;;;;5056170;28;20086;-89
2023/04/28 05:55:08;;;;;;;20.65;11.27;;;9.00;99.90;;;;;;5059076;28;20112;-89
2023/04/28 05:57:34;;;;;;;18.35;12.80;;;8.90;99.90;;;;;;5055423;28;20025;-89
2023/04/28 06:00:01;;;;;;;24.77;12.13;;;8.90;99.90;;;;;;5053315;28;20499;-89
2023/04/28 06:02:26;;;;;;;19.15;12.07;;;8.80;99.90;;;;;;5048349;28;20028;-89
2023/04/28 06:04:52;;;;;;;22.20;13.10;;;8.80;99.90;;;;;;5057028;28;20017;-90
2023/04/28 06:07:18;;;;;;;26.17;15.38;;;8.80;99.90;;;;;;5059066;28;20391;-90
2023/04/28 06:09:43;;;;;;;26.60;13.35;;;8.80;99.90;;;;;;5055527;28;20085;-90
2023/04/28 06:12:09;;;;;;;24.15;14.02;;;8.90;99.90;;;;;;5058728;28;20033;-90
2023/04/28 06:14:36;;;;;;;23.85;14.18;;;9.10;99.90;;;;;;5055923;28;20131;-91
2023/04/28 06:17:02;;;;;;;23.73;14.23;;;9.10;99.90;;;;;;5050523;28;20020;-90
2023/04/28 06:19:28;;;;;;;26.90;15.85;;;9.10;99.90;;;;;;5074974;28;20092;-90
2023/04/28 06:21:54;;;;;;;27.65;16.60;;;9.20;99.90;;;;;;5056971;28;20029;-89
2023/04/28 06:24:20;;;;;;;29.40;17.00;;;9.30;99.90;;;;;;5063453;28;20041;-90
2023/04/28 06:26:47;;;;;;;28.13;17.23;;;9.30;99.90;;;;;;5057371;28;20055;-90
2023/04/28 06:29:12;;;;;;;30.17;17.33;;;9.40;99.90;;;;;;5051358;28;20029;-89
2023/04/28 06:31:39;;;;;;;29.17;17.42;;;9.50;99.90;;;;;;5048383;28;20025;-91
2023/04/28 06:34:06;;;;;;;31.48;18.05;;;9.50;99.90;;;;;;5050446;28;20036;-91
2023/04/28 06:36:32;;;;;;;33.10;18.40;;;9.60;99.90;;;;;;5056951;28;20028;-90
2023/04/28 06:38:58;;;;;;;27.38;17.80;;;9.60;99.90;;;;;;5050613;28;20029;-91
2023/04/28 06:41:24;;;;;;;26.33;17.27;;;9.60;99.90;;;;;;5051375;28;20052;-90
2023/04/28 06:43:51;;;;;;;28.33;18.02;;;9.70;99.90;;;;;;5061083;28;20138;-89
2023/04/28 06:46:23;;;;;;;26.67;17.80;;;9.60;99.90;;;;;;5049815;28;20021;-90
2023/04/28 06:48:48;;;;;;;31.23;18.27;;;9.50;99.90;;;;;;5064438;28;20380;-90
2023/04/28 06:51:15;;;;;;;29.52;17.48;;;9.60;99.90;;;;;;5045783;28;20021;-90
2023/04/28 06:53:41;;;;;;;34.20;20.25;;;9.60;99.90;;;;;;5052363;28;20047;-90
2023/04/28 06:56:07;;;;;;;33.70;19.02;;;9.60;99.90;;;;;;5061156;28;20079;-90
2023/04/28 06:58:33;;;;;;;28.85;18.08;;;9.60;99.90;;;;;;5048732;28;20036;-88
2023/04/28 07:00:59;;;;;;;31.00;17.75;;;9.50;99.90;;;;;;5067587;28;20016;-90
2023/04/28 07:03:26;;;;;;;26.48;16.92;;;9.50;99.90;;;;;;5069827;28;20032;-90
2023/04/28 07:05:52;;;;;;;22.92;15.65;;;9.40;99.90;;;;;;5048827;28;20065;-90
2023/04/28 07:08:17;;;;;;;24.38;14.32;;;9.40;99.90;;;;;;5057159;28;20096;-91
2023/04/28 07:10:43;;;;;;;24.77;15.80;;;9.30;99.90;;;;;;5063921;28;20039;-90
2023/04/28 07:13:09;;;;;;;22.00;15.35;;;9.30;99.90;;;;;;5054350;28;20037;-90
2023/04/28 07:15:34;;;;;;;26.27;16.20;;;9.30;99.90;;;;;;5056157;28;20089;-90
2023/04/28 07:18:00;;;;;;;30.63;16.35;;;9.50;99.90;;;;;;5053374;28;20039;-90
2023/04/28 07:20:26;;;;;;;29.02;16.98;;;9.40;99.90;;;;;;5053805;28;20028;-91
2023/04/28 07:22:51;;;;;;;23.83;16.05;;;9.40;99.90;;;;;;5056850;28;20025;-91
2023/04/28 07:25:17;;;;;;;29.02;17.63;;;9.50;99.90;;;;;;5065283;28;20119;-90
2023/04/28 07:27:44;;;;;;;27.33;16.92;;;9.60;99.90;;;;;;5048754;28;20029;-90
2023/04/28 07:30:10;;;;;;;30.00;18.30;;;9.70;99.90;;;;;;5065452;28;20074;-90
2023/04/28 07:32:36;;;;;;;27.40;17.88;;;9.80;99.90;;;;;;5056627;28;20052;-90
2023/04/28 07:35:03;;;;;;;32.47;20.42;;;9.80;99.90;;;;;;5052940;28;20016;-90
2023/04/28 07:37:28;;;;;;;30.65;17.83;;;9.80;99.90;;;;;;5053068;28;20047;-91
2023/04/28 07:39:55;;;;;;;26.00;17.38;;;9.80;99.90;;;;;;5053259;28;20041;-91
2023/04/28 07:42:21;;;;;;;26.17;17.08;;;9.90;99.90;;;;;;5059713;28;20032;-90
2023/04/28 07:44:46;;;;;;;26.95;17.95;;;9.80;99.90;;;;;;5069757;28;20083;-90
2023/04/28 07:47:12;;;;;;;24.60;16.90;;;9.80;99.90;;;;;;5056514;28;20029;-90
2023/04/28 07:49:38;;;;;;;23.10;16.08;;;9.80;99.90;;;;;;5053480;28;20115;-89
2023/04/28 07:52:04;;;;;;;24.92;15.88;;;9.80;99.90;;;;;;5065003;28;20028;-90
2023/04/28 07:54:29;;;;;;;21.48;14.32;;;9.80;99.90;;;;;;5056478;28;20066;-90
2023/04/28 07:56:56;;;;;;;22.25;14.82;;;9.80;99.90;;;;;;5063217;28;20033;-90
2023/04/28 07:59:22;;;;;;;20.10;13.15;;;9.80;99.90;;;;;;5047738;28;20036;-91
2023/04/28 08:01:48;;;;;;;26.58;16.70;;;9.70;99.90;;;;;;5041490;28;20031;-91
2023/04/28 08:04:13;;;;;;;24.35;16.98;;;9.80;99.90;;;;;;5048005;28;20025;-91
2023/04/28 08:06:39;;;;;;;32.47;20.08;;;9.80;99.90;;;;;;5044124;28;20111;-91
2023/04/28 08:09:05;;;;;;;28.73;20.38;;;9.80;99.90;;;;;;5049959;28;20034;-91
2023/04/28 08:11:32;;;;;;;27.27;16.08;;;9.90;99.90;;;;;;5073808;28;20035;-91
2023/04/28 08:14:00;;;;;;;31.80;18.73;;;10.00;99.90;;;;;;5053561;28;20404;-91
2023/04/28 08:16:27;;;;;;;28.60;19.08;;;10.00;99.90;;;;;;5054883;28;20498;-91
2023/04/28 08:18:52;;;;;;;66.50;20.33;;;10.00;99.90;;;;;;5044402;28;20112;-91
2023/04/28 08:21:18;;;;;;;44.58;19.75;;;10.10;99.90;;;;;;5053584;28;20424;-91
2023/04/28 08:23:46;;;;;;;49.38;20.05;;;10.00;99.90;;;;;;5048959;28;20020;-90
2023/04/28 08:26:11;;;;;;;81.63;21.98;;;9.90;99.90;;;;;;5046131;28;20028;-89
2023/04/28 08:28:38;;;;;;;101.35;22.50;;;9.80;99.90;;;;;;5074156;28;20024;-91
2023/04/28 08:31:04;;;;;;;53.80;20.63;;;9.70;99.90;;;;;;5057017;28;20042;-91
2023/04/28 08:33:29;;;;;;;66.13;21.90;;;9.70;99.90;;;;;;5058685;28;20161;-91
2023/04/28 08:35:55;;;;;;;110.80;23.80;;;9.70;99.90;;;;;;5062418;28;20024;-91
2023/04/28 08:38:22;;;;;;;46.88;22.55;;;9.70;99.90;;;;;;5055491;28;20037;-92
2023/04/28 08:40:48;;;;;;;44.80;21.23;;;9.80;99.90;;;;;;5058089;28;20025;-91
2023/04/28 08:43:14;;;;;;;169.68;27.10;;;9.90;99.90;;;;;;5048154;28;20085;-92
2023/04/28 08:45:42;;;;;;;128.45;24.23;;;10.00;99.90;;;;;;5059434;28;20128;-91
2023/04/28 08:48:19;;;;;;;235.90;29.35;;;9.80;99.90;;;;;;5073550;28;20027;-92
2023/04/28 08:50:50;;;;;;;162.40;26.45;;;9.70;99.90;;;;;;5073380;28;20032;-91
2023/04/28 08:53:24;;;;;;;155.80;25.05;;;9.70;99.90;;;;;;5043828;28;20028;-91
2023/04/28 08:55:57;;;;;;;416.00;36.92;;;9.70;99.90;;;;;;5067819;28;20389;-91
2023/04/28 08:58:24;;;;;;;465.60;41.72;;;9.70;99.90;;;;;;5062392;28;20060;-90
2023/04/28 09:00:51;;;;;;;193.77;29.75;;;9.80;99.90;;;;;;5054292;28;20077;-91
2023/04/28 09:03:17;;;;;;;607.42;47.92;;;9.90;99.90;;;;;;5054993;28;20376;-91
2023/04/28 09:05:43;;;;;;;454.60;40.67;;;9.90;99.90;;;;;;5056299;28;20024;-91
2023/04/28 09:08:10;;;;;;;313.30;34.13;;;9.90;99.90;;;;;;5052807;28;20061;-92
2023/04/28 09:10:37;;;;;;;158.48;28.50;;;9.90;99.90;;;;;;5069699;28;20561;-91
2023/04/28 09:13:03;;;;;;;146.27;25.58;;;9.90;99.90;;;;;;5055829;28;20065;-92
2023/04/28 09:15:34;;;;;;;153.40;26.13;;;9.90;99.90;;;;;;5045853;28;20086;-90
2023/04/28 09:18:04;;;;;;;418.45;38.20;;;10.00;99.90;;;;;;5052415;28;20036;-90
2023/04/28 09:20:32;;;;;;;367.63;34.42;;;10.00;99.90;;;;;;5059266;28;20103;-90
2023/04/28 09:23:19;;;;;;;316.42;36.05;;;10.00;99.90;;;;;;5051068;28;20033;-91
2023/04/28 09:26:05;;;;;;;375.02;34.40;;;10.10;99.90;;;;;;5049970;28;20449;-91
2023/04/28 09:28:35;;;;;;;74.45;24.77;;;10.30;99.90;;;;;;5052949;28;20039;-92
2023/04/28 09:31:01;;;;;;;121.50;24.05;;;10.70;99.90;;;;;;5071031;28;20123;-91
2023/04/28 09:33:27;;;;;;;378.55;33.75;;;11.20;99.90;;;;;;5053291;28;20044;-90
2023/04/28 09:35:53;;;;;;;46.60;19.63;;;11.50;99.90;;;;;;5070779;28;20408;-91
2023/04/28 09:38:20;;;;;;;182.85;23.30;;;11.80;99.90;;;;;;5058125;28;20020;-91
2023/04/28 09:40:55;;;;;;;66.97;18.92;;;12.30;99.90;;;;;;5067313;28;20031;-92
2023/04/28 09:43:27;;;;;;;81.38;17.05;;;12.60;99.90;;;;;;5060329;28;20018;-91
2023/04/28 09:45:54;;;;;;;52.97;14.52;;;12.60;99.90;;;;;;5061948;28;20082;-91
2023/04/28 09:48:33;;;;;;;115.65;19.45;;;12.80;99.90;;;;;;5064294;28;20068;-92
2023/04/28 09:51:01;;;;;;;144.13;19.23;;;12.60;99.90;;;;;;5062027;28;20753;-92
2023/04/28 09:53:28;;;;;;;25.60;14.60;;;12.50;99.90;;;;;;5047455;28;20078;-92
2023/04/28 09:55:55;;;;;;;43.97;14.52;;;12.30;99.90;;;;;;5042625;28;20400;-92
2023/04/28 09:58:22;;;;;;;60.35;16.08;;;12.10;99.90;;;;;;5053878;28;20074;-91
2023/04/28 10:00:56;;;;;;;30.05;16.45;;;11.80;99.90;;;;;;5044539;28;20510;-92
2023/04/28 10:03:29;;;;;;;44.85;14.43;;;11.80;99.90;;;;;;5057652;28;20028;-92
2023/04/28 10:05:57;;;;;;;99.72;17.15;;;11.70;99.90;;;;;;5063130;28;20032;-92
2023/04/28 10:08:24;;;;;;;27.42;14.55;;;11.70;99.90;;;;;;5055571;28;20040;-92
2023/04/28 10:10:53;;;;;;;17.08;12.38;;;11.50;99.90;;;;;;5065990;28;20533;-91
2023/04/28 10:13:20;;;;;;;22.27;13.35;;;11.50;99.90;;;;;;5045793;28;20028;-92
2023/04/28 10:15:47;;;;;;;12.60;9.45;;;11.50;99.90;;;;;;5059962;28;20108;-92
2023/04/28 10:18:14;;;;;;;12.57;9.07;;;11.40;99.90;;;;;;5041450;28;20064;-92
2023/04/28 10:20:48;;;;;;;14.02;10.57;;;11.30;99.90;;;;;;5066859;28;20031;-91
2023/04/28 10:23:39;;;;;;;27.42;15.02;;;11.30;99.90;;;;;;5054662;28;20021;-91
2023/04/28 10:26:10;;;;;;;72.30;15.88;;;11.30;99.90;;;;;;5041856;28;20033;-90
2023/04/28 10:28:36;;;;;;;31.52;14.35;;;11.30;99.90;;;;;;5052034;28;20030;-91
2023/04/28 10:31:12;;;;;;;296.45;26.35;;;11.30;99.90;;;;;;5050969;28;20116;-92
2023/04/28 10:33:39;;;;;;;157.70;20.42;;;11.30;99.90;;;;;;5055269;28;20036;-91
2023/04/28 10:36:07;;;;;;;122.65;20.08;;;11.30;99.90;;;;;;5074660;28;20043;-90
2023/04/28 10:38:33;;;;;;;81.72;19.05;;;11.30;99.90;;;;;;5055564;28;20480;-91
2023/04/28 10:41:03;;;;;;;421.55;32.25;;;11.40;99.90;;;;;;5050827;28;20024;-93
2023/04/28 10:43:31;;;;;;;894.00;58.97;;;11.40;99.90;;;;;;5054148;28;20025;-91
2023/04/28 10:46:00;;;;;;;548.22;39.92;;;11.30;99.90;;;;;;5049301;28;20032;-91
2023/04/28 10:48:25;;;;;;;233.65;24.73;;;11.40;99.90;;;;;;5053853;28;20079;-90
2023/04/28 10:51:03;;;;;;;585.67;43.25;;;11.40;99.90;;;;;;5049809;28;20028;-92
2023/04/28 10:53:44;;;;;;;673.67;45.22;;;11.40;99.90;;;;;;5074531;28;20039;-92
2023/04/28 10:56:20;;;;;;;262.13;28.27;;;11.50;99.90;;;;;;5041667;28;20071;-92
2023/04/28 10:58:50;;;;;;;690.03;47.03;;;11.40;99.90;;;;;;5054409;28;20356;-91
2023/04/28 11:01:29;;;;;;;455.13;35.33;;;11.40;99.90;;;;;;5054091;28;20020;-91
2023/04/28 11:04:06;;;;;;;382.85;38.15;;;11.30;99.90;;;;;;5046103;28;20043;-91
2023/04/28 11:06:38;;;;;;;292.17;29.50;;;11.40;99.90;;;;;;5049284;28;20509;-91
2023/04/28 11:09:13;;;;;;;357.73;31.45;;;11.40;99.90;;;;;;5054833;28;20029;-91
2023/04/28 11:11:59;;;;;;;279.63;27.60;;;11.50;99.90;;;;;;5061363;28;20115;-90
2023/04/28 11:14:25;;;;;;;118.07;20.17;;;11.50;99.90;;;;;;5056713;28;20768;-91
2023/04/28 11:16:53;;;;;;;49.55;15.30;;;11.70;99.90;;;;;;5056838;28;20120;-90
2023/04/28 11:19:21;;;;;;;34.92;17.98;;;11.80;99.90;;;;;;5056104;28;20040;-91
2023/04/28 11:21:48;;;;;;;30.05;13.00;;;11.80;99.90;;;;;;5072125;28;20028;-92
2023/04/28 11:24:14;;;;;;;28.23;14.52;;;11.70;99.90;;;;;;5057422;28;20020;-91
2023/04/28 11:26:41;;;;;;;28.80;14.60;;;11.80;99.90;;;;;;5054453;28;20529;-92
2023/04/28 11:29:07;;;;;;;19.45;12.48;;;11.90;99.90;;;;;;5062631;28;20111;-92
2023/04/28 11:31:33;;;;;;;33.60;18.20;;;11.90;99.90;;;;;;5055449;28;20036;-90
2023/04/28 11:34:13;;;;;;;111.90;34.17;;;12.00;99.90;;;;;;5049871;28;20408;-92
2023/04/28 11:36:40;;;;;;;66.22;29.85;;;12.00;99.90;;;;;;5063989;28;20062;-91
2023/04/28 11:39:11;;;;;;;74.72;27.10;;;12.10;99.90;;;;;;5054979;28;20124;-92
2023/04/28 11:41:42;;;;;;;149.02;22.45;;;12.20;99.90;;;;;;5039715;28;20021;-92
2023/04/28 11:44:18;;;;;;;;;;;12.20;99.90;;;;;;5041684;28;20067;-92
2023/04/28 11:46:55;;;;;;;24.75;17.88;;;12.20;99.90;;;;;;5057528;28;19909;-90
2023/04/28 11:49:25;;;;;;;28.23;19.42;;;12.10;99.90;;;;;;5055476;28;20028;-90
2023/04/28 11:51:51;;;;;;;39.15;19.00;;;12.20;99.90;;;;;;5048373;28;20029;-90
2023/04/28 11:54:25;;;;;;;25.25;18.52;;;12.20;99.90;;;;;;5047375;28;20115;-90
2023/04/28 11:56:52;;;;;;;29.77;15.05;;;12.30;99.90;;;;;;5049084;28;20037;-91
2023/04/28 11:59:26;;;;;;;38.88;14.15;;;12.20;99.90;;;;;;5049478;28;20492;-92
2023/04/28 12:02:01;;;;;;;32.47;17.67;;;12.20;99.90;;;;;;5041346;28;20021;-91
2023/04/28 12:04:35;;;;;;;29.35;17.40;;;12.10;99.90;;;;;;5049998;28;20038;-92
2023/04/28 12:07:10;;;;;;;33.42;13.98;;;12.20;99.90;;;;;;5045278;28;20028;-92
2023/04/28 12:09:42;;;;;;;34.38;18.77;;;12.20;99.90;;;;;;5062019;28;20514;-91
2023/04/28 12:12:12;;;;;;;;;;;12.10;99.90;;;;;;5066765;28;20039;-91
2023/04/28 12:14:58;;;;;;;25.77;14.52;;;12.10;99.90;;;;;;5061412;28;19908;-92
2023/04/28 12:17:34;;;;;;;22.75;15.65;;;12.10;99.90;;;;;;5043962;28;20032;-91
2023/04/28 12:20:03;;;;;;;19.80;12.65;;;12.10;99.90;;;;;;5058693;28;20110;-90
2023/04/28 12:22:29;;;;;;;31.13;15.45;;;12.10;99.90;;;;;;5062763;28;20099;-91
2023/04/28 12:25:09;;;;;;;25.63;16.95;;;12.20;99.90;;;;;;5054602;28;20101;-90
2023/04/28 12:27:39;;;;;;;27.63;14.82;;;12.10;99.90;;;;;;5051114;28;20551;-90
2023/04/28 12:30:23;;;;;;;38.75;19.00;;;12.10;99.90;;;;;;5059112;28;20029;-89
2023/04/28 12:32:50;;;;;;;20.67;11.30;;;12.00;99.90;;;;;;5063551;28;20036;-89
2023/04/28 12:35:16;;;;;;;35.03;19.73;;;12.00;99.90;;;;;;5045597;28;20123;-91
2023/04/28 12:37:43;;;;;;;31.58;17.50;;;12.00;99.90;;;;;;5051287;28;20074;-90
2023/04/28 12:40:09;;;;;;;22.77;13.57;;;12.00;99.90;;;;;;5053424;28;20032;-91